createdAt,value
2022-10-01T00:01:18.254Z,223.75
2022-10-01T00:03:45.663Z,225.95
2022-10-01T00:06:20.438Z,221.82
2022-10-01T00:08:49.488Z,230.43
2022-10-01T00:11:21.108Z,224.93
2022-10-01T00:13:48.503Z,221.27
2022-10-01T00:16:17.852Z,216.27
2022-10-01T00:18:46.333Z,215.30
2022-10-01T00:21:16.136Z,212.57
2022-10-01T00:23:42.954Z,191.00
2022-10-01T00:26:12.819Z,214.60
2022-10-01T00:28:40.262Z,194.57
2022-10-01T00:31:10.617Z,192.18
2022-10-01T00:33:38.512Z,212.25
2022-10-01T00:36:06.907Z,196.63
2022-10-01T00:38:33.927Z,210.75
2022-10-01T00:41:01.314Z,196.98
2022-10-01T00:43:31.842Z,199.98
2022-10-01T00:46:04.521Z,204.40
2022-10-01T00:48:38.581Z,229.63
2022-10-01T00:51:06.630Z,231.65
2022-10-01T00:53:33.315Z,204.10
2022-10-01T00:55:59.990Z,221.40
2022-10-01T00:58:27.532Z,212.20
2022-10-01T01:00:57.002Z,211.18
2022-10-01T01:03:24.068Z,219.73
2022-10-01T01:05:50.639Z,226.77
2022-10-01T01:08:17.984Z,238.60
2022-10-01T01:11:23.331Z,226.77
2022-10-01T01:13:57.765Z,217.85
2022-10-01T01:19:09.461Z,195.52
2022-10-01T01:21:41.529Z,214.18
2022-10-01T01:24:45.726Z,221.75
2022-10-01T01:27:45.727Z,206.20
2022-10-01T01:30:16.570Z,202.05
2022-10-01T01:33:04.677Z,222.15
2022-10-01T01:35:36.492Z,196.73
2022-10-01T01:38:10.234Z,223.38
2022-10-01T01:40:40.730Z,209.70
2022-10-01T01:43:12.295Z,223.40
2022-10-01T01:45:40.314Z,215.45
2022-10-01T01:48:10.034Z,222.35
2022-10-01T01:50:44.532Z,218.18
2022-10-01T01:55:39.227Z,172.98
2022-10-01T01:58:06.154Z,208.60
2022-10-01T02:00:32.648Z,194.38
2022-10-01T02:02:59.637Z,194.32
2022-10-01T02:05:33.045Z,203.30
2022-10-01T02:08:23.837Z,209.27
2022-10-01T02:11:17.771Z,199.25
2022-10-01T02:14:00.085Z,215.48
2022-10-01T02:16:32.390Z,207.80
2022-10-01T02:19:11.931Z,223.20
2022-10-01T02:22:19.338Z,226.70
2022-10-01T02:24:52.129Z,205.63
2022-10-01T02:27:25.313Z,213.40
2022-10-01T02:29:55.532Z,229.95
2022-10-01T02:32:22.804Z,230.80
2022-10-01T02:34:50.494Z,227.20
2022-10-01T02:37:22.475Z,204.15
2022-10-01T02:39:52.089Z,231.43
2022-10-01T02:42:21.402Z,225.57
2022-10-01T02:44:51.531Z,207.40
2022-10-01T02:47:26.544Z,205.57
2022-10-01T02:49:53.731Z,205.27
2022-10-01T02:52:26.321Z,208.85
2022-10-01T02:54:55.391Z,214.73
2022-10-01T02:57:26.908Z,209.35
2022-10-01T02:59:59.106Z,203.65
2022-10-01T03:02:28.013Z,188.98
2022-10-01T03:04:57.236Z,188.35
2022-10-01T03:07:25.397Z,178.23
2022-10-01T03:09:52.172Z,182.25
2022-10-01T03:12:18.890Z,156.40
2022-10-01T03:14:46.474Z,174.85
2022-10-01T03:17:13.473Z,178.27
2022-10-01T03:19:40.409Z,187.48
2022-10-01T03:22:07.762Z,182.40
2022-10-01T03:24:34.523Z,173.25
2022-10-01T03:27:01.163Z,166.63
2022-10-01T03:29:27.774Z,172.15
2022-10-01T03:31:54.794Z,166.40
2022-10-01T03:34:21.991Z,154.73
2022-10-01T03:36:49.965Z,188.10
2022-10-01T03:39:16.848Z,158.85
2022-10-01T03:41:44.060Z,159.70
2022-10-01T03:44:10.891Z,175.25
2022-10-01T03:46:37.827Z,167.40
2022-10-01T03:49:04.659Z,166.15
2022-10-01T03:51:32.139Z,157.50
2022-10-01T03:53:59.688Z,162.27
2022-10-01T03:56:26.402Z,167.73
2022-10-01T03:58:52.875Z,158.85
2022-10-01T04:01:19.428Z,154.27
2022-10-01T04:03:46.391Z,159.20
2022-10-01T04:06:13.420Z,162.45
2022-10-01T04:08:39.951Z,154.27
2022-10-01T04:11:06.898Z,153.75
2022-10-01T04:13:34.657Z,168.43
2022-10-01T04:16:02.830Z,177.10
2022-10-01T04:18:29.598Z,167.75
2022-10-01T04:20:56.100Z,164.80
2022-10-01T04:23:22.683Z,176.85
2022-10-01T04:25:49.455Z,174.63
2022-10-01T04:28:16.475Z,194.40
2022-10-01T04:30:45.018Z,178.52
2022-10-01T04:33:14.851Z,196.98
2022-10-01T04:35:41.406Z,198.15
2022-10-01T04:38:14.110Z,187.85
2022-10-01T04:40:40.641Z,192.02
2022-10-01T04:43:09.619Z,186.63
2022-10-01T04:45:39.483Z,197.85
2022-10-01T04:48:06.216Z,198.85
2022-10-01T04:50:34.288Z,193.10
2022-10-01T04:53:00.794Z,202.38
2022-10-01T04:55:27.319Z,197.23
2022-10-01T04:57:53.895Z,178.38
2022-10-01T05:00:24.477Z,201.10
2022-10-01T05:02:51.529Z,178.25
2022-10-01T05:05:20.275Z,176.25
2022-10-01T05:07:47.483Z,172.30
2022-10-01T05:10:16.610Z,174.75
2022-10-01T05:12:43.385Z,183.82
2022-10-01T05:15:10.735Z,176.82
2022-10-01T05:17:37.289Z,181.52
2022-10-01T05:20:06.601Z,186.82
2022-10-01T05:22:33.621Z,164.52
2022-10-01T05:25:00.390Z,160.57
2022-10-01T05:27:27.437Z,142.80
2022-10-01T05:29:53.994Z,135.65
2022-10-01T05:32:20.513Z,130.52
2022-10-01T05:34:51.213Z,145.35
2022-10-01T05:37:20.007Z,136.73
2022-10-01T05:39:46.644Z,126.97
2022-10-01T05:42:13.129Z,123.05
2022-10-01T05:44:45.964Z,124.15
2022-10-01T05:47:16.778Z,120.18
2022-10-01T05:49:43.826Z,126.00
2022-10-01T05:52:11.202Z,134.13
2022-10-01T05:54:38.111Z,124.53
2022-10-01T05:57:05.634Z,123.97
2022-10-01T05:59:32.301Z,120.50
2022-10-01T06:01:58.994Z,119.50
2022-10-01T06:04:25.648Z,107.30
2022-10-01T06:06:53.724Z,110.18
2022-10-01T06:09:20.224Z,116.55
2022-10-01T06:11:51.244Z,111.50
2022-10-01T06:14:18.040Z,109.10
2022-10-01T06:16:44.756Z,103.28
2022-10-01T06:19:11.344Z,110.00
2022-10-01T06:21:38.147Z,111.85
2022-10-01T06:24:05.252Z,96.47
2022-10-01T06:26:31.882Z,113.38
2022-10-01T06:28:58.392Z,115.85
2022-10-01T06:31:25.239Z,112.10
2022-10-01T06:33:51.952Z,124.97
2022-10-01T06:36:18.456Z,116.82
2022-10-01T06:38:48.200Z,126.28
2022-10-01T06:41:14.924Z,121.95
2022-10-01T06:43:41.478Z,126.18
2022-10-01T06:46:08.068Z,135.35
2022-10-01T06:48:36.474Z,137.13
2022-10-01T06:51:04.076Z,138.77
2022-10-01T06:53:31.794Z,142.43
2022-10-01T06:56:04.667Z,148.98
2022-10-01T06:58:31.299Z,143.02
2022-10-01T07:01:02.641Z,144.02
2022-10-01T07:03:31.178Z,141.00
2022-10-01T07:06:02.436Z,140.00
2022-10-01T07:08:29.121Z,151.45
2022-10-01T07:11:01.189Z,145.52
2022-10-01T07:13:27.741Z,157.40
2022-10-01T07:15:54.226Z,163.48
2022-10-01T07:18:21.119Z,173.20
2022-10-01T07:20:47.664Z,165.13
2022-10-01T07:23:15.609Z,171.50
2022-10-01T07:25:43.873Z,173.75
2022-10-01T07:28:18.231Z,191.57
2022-10-01T07:31:00.946Z,185.55
2022-10-01T07:33:28.231Z,187.07
2022-10-01T07:35:55.073Z,198.93
2022-10-01T07:38:21.874Z,202.65
2022-10-01T07:40:52.742Z,215.85
2022-10-01T07:43:19.271Z,237.18
2022-10-01T07:45:58.260Z,241.00
2022-10-01T07:48:25.681Z,248.27
2022-10-01T07:50:52.940Z,244.50
2022-10-01T07:53:20.082Z,245.70
2022-10-01T07:55:46.687Z,253.55
2022-10-01T07:58:15.260Z,241.82
2022-10-01T08:00:43.522Z,243.32
2022-10-01T08:03:12.310Z,238.13
2022-10-01T08:05:41.321Z,255.68
2022-10-01T08:08:08.743Z,261.92
2022-10-01T08:10:37.685Z,254.57
2022-10-01T08:13:08.281Z,258.00
2022-10-01T08:15:35.355Z,260.63
2022-10-01T08:18:03.223Z,265.08
2022-10-01T08:20:30.286Z,268.30
2022-10-01T08:23:08.311Z,278.42
2022-10-01T08:25:35.052Z,281.42
2022-10-01T08:28:01.871Z,287.63
2022-10-01T08:30:29.020Z,289.02
2022-10-01T08:32:56.915Z,287.98
2022-10-01T08:35:24.345Z,285.67
2022-10-01T08:37:51.031Z,297.10
2022-10-01T08:40:21.346Z,298.48
2022-10-01T08:42:51.919Z,293.27
2022-10-01T08:45:57.131Z,279.00
2022-10-01T08:48:31.062Z,273.13
2022-10-01T08:50:57.551Z,294.00
2022-10-01T08:53:33.962Z,278.33
2022-10-01T08:56:02.448Z,276.95
2022-10-01T08:58:35.152Z,291.33
2022-10-01T09:01:01.790Z,312.70
2022-10-01T09:03:31.286Z,305.73
2022-10-01T09:06:16.207Z,302.98
2022-10-01T09:09:03.262Z,298.38
2022-10-01T09:11:42.584Z,294.95
2022-10-01T09:14:44.432Z,302.45
2022-10-01T09:17:49.855Z,299.17
2022-10-01T09:23:38.956Z,257.23
2022-10-01T09:26:11.211Z,283.83
2022-10-01T09:28:39.626Z,302.10
2022-10-01T09:31:08.946Z,329.63
2022-10-01T09:33:38.460Z,324.00
2022-10-01T09:36:16.557Z,335.02
2022-10-01T09:38:46.882Z,351.55
2022-10-01T09:41:14.706Z,352.08
2022-10-01T09:43:43.717Z,362.92
2022-10-01T09:46:15.191Z,372.38
2022-10-01T09:48:51.893Z,418.25
2022-10-01T09:51:27.450Z,420.08
2022-10-01T09:54:15.327Z,566.08
2022-10-01T09:56:56.561Z,434.52
2022-10-01T09:59:29.771Z,573.40
2022-10-01T10:01:59.836Z,439.40
2022-10-01T10:04:26.811Z,376.38
2022-10-01T10:07:05.260Z,355.25
2022-10-01T10:09:33.831Z,369.30
2022-10-01T10:12:00.798Z,405.67
2022-10-01T10:14:40.821Z,394.10
2022-10-01T10:17:13.966Z,386.00
2022-10-01T10:19:41.217Z,383.23
2022-10-01T10:22:23.241Z,365.20
2022-10-01T10:24:49.762Z,408.95
2022-10-01T10:27:28.525Z,319.40
2022-10-01T10:30:08.595Z,374.60
2022-10-01T10:32:35.180Z,381.25
2022-10-01T10:35:10.034Z,455.77
2022-10-01T10:37:42.547Z,734.10
2022-10-01T10:40:20.214Z,721.53
2022-10-01T10:42:49.165Z,646.78
2022-10-01T10:45:20.547Z,616.53
2022-10-01T10:47:52.739Z,389.90
2022-10-01T10:50:32.297Z,242.85
2022-10-01T10:52:59.373Z,257.27
2022-10-01T10:55:31.132Z,212.85
2022-10-01T10:58:16.300Z,203.73
2022-10-01T11:00:52.520Z,349.77
2022-10-01T11:03:26.348Z,217.38
2022-10-01T11:05:56.422Z,133.63
2022-10-01T11:08:26.138Z,127.10
2022-10-01T11:11:32.450Z,114.22
2022-10-01T11:14:09.500Z,137.77
2022-10-01T11:17:00.746Z,130.07
2022-10-01T11:20:10.742Z,132.23
2022-10-01T11:22:43.241Z,316.33
2022-10-01T11:25:19.413Z,171.50
2022-10-01T11:28:03.295Z,399.55
2022-10-01T11:30:42.215Z,195.80
2022-10-01T11:33:37.871Z,107.05
2022-10-01T11:36:29.829Z,66.10
2022-10-01T11:39:05.445Z,46.75
2022-10-01T11:41:39.784Z,53.88
2022-10-01T11:44:32.754Z,42.58
2022-10-01T11:47:08.712Z,34.50
2022-10-01T11:49:53.107Z,33.88
2022-10-01T11:52:37.618Z,38.35
2022-10-01T11:55:35.205Z,37.03
2022-10-01T11:58:48.971Z,37.88
2022-10-01T12:01:24.387Z,35.47
2022-10-01T12:03:53.825Z,31.52
2022-10-01T12:06:34.043Z,30.98
2022-10-01T12:09:35.402Z,30.52
2022-10-01T12:12:11.247Z,29.13
2022-10-01T12:14:44.351Z,30.48
2022-10-01T12:17:22.652Z,30.33
2022-10-01T12:19:52.068Z,30.42
2022-10-01T12:22:26.438Z,30.58
2022-10-01T12:24:53.838Z,37.38
2022-10-01T12:27:29.580Z,39.28
2022-10-01T12:30:04.366Z,31.08
2022-10-01T12:33:08.131Z,33.42
2022-10-01T12:35:58.894Z,35.55
2022-10-01T12:38:37.303Z,35.33
2022-10-01T12:41:42.070Z,34.53
2022-10-01T12:44:38.446Z,27.23
2022-10-01T12:47:16.133Z,28.70
2022-10-01T12:49:56.416Z,64.68
2022-10-01T12:52:47.659Z,82.20
2022-10-01T12:55:39.281Z,102.20
2022-10-01T12:58:24.548Z,138.30
2022-10-01T13:01:03.289Z,148.70
2022-10-01T13:03:51.196Z,149.32
2022-10-01T13:07:14.933Z,328.08
2022-10-01T13:10:00.030Z,69.57
2022-10-01T13:12:44.748Z,100.32
2022-10-01T13:15:20.816Z,41.42
2022-10-01T13:17:58.269Z,35.25
2022-10-01T13:20:41.113Z,27.75
2022-10-01T13:23:08.642Z,27.02
2022-10-01T13:26:22.952Z,24.52
2022-10-01T13:29:11.358Z,20.37
2022-10-01T13:31:37.872Z,23.02
2022-10-01T13:34:42.878Z,23.52
2022-10-01T13:37:10.281Z,21.65
2022-10-01T13:39:41.956Z,19.88
2022-10-01T13:42:18.367Z,22.85
2022-10-01T13:44:45.065Z,20.90
2022-10-01T13:47:13.340Z,20.23
2022-10-01T13:49:42.936Z,21.20
2022-10-01T13:52:19.385Z,20.75
2022-10-01T13:54:56.394Z,23.73
2022-10-01T13:57:37.993Z,22.77
2022-10-01T14:00:16.573Z,43.35
2022-10-01T14:03:06.931Z,48.08
2022-10-01T14:05:37.821Z,58.33
2022-10-01T14:08:25.850Z,108.50
2022-10-01T14:11:20.435Z,53.72
2022-10-01T14:16:46.229Z,54.03
2022-10-01T14:19:21.534Z,63.65
2022-10-01T14:22:13.216Z,49.63
2022-10-01T14:25:08.479Z,30.13
2022-10-01T14:27:53.173Z,31.83
2022-10-01T14:30:50.483Z,32.78
2022-10-01T14:34:04.222Z,38.00
2022-10-01T14:36:37.516Z,37.67
2022-10-01T14:39:15.831Z,38.38
2022-10-01T14:41:42.851Z,46.05
2022-10-01T14:44:43.807Z,34.95
2022-10-01T14:47:25.118Z,30.77
2022-10-01T14:49:53.775Z,34.05
2022-10-01T14:52:29.533Z,31.30
2022-10-01T14:55:01.335Z,32.00
2022-10-01T14:57:33.230Z,33.00
2022-10-01T15:00:03.122Z,35.42
2022-10-01T15:02:29.662Z,30.45
2022-10-01T15:04:57.488Z,31.15
2022-10-01T15:07:27.997Z,34.38
2022-10-01T15:10:06.024Z,31.90
2022-10-01T15:12:38.493Z,28.75
2022-10-01T15:15:15.352Z,35.33
2022-10-01T15:17:42.494Z,50.80
2022-10-01T15:20:12.129Z,45.72
2022-10-01T15:22:39.680Z,37.50
2022-10-01T15:25:06.832Z,36.97
2022-10-01T15:27:33.746Z,41.42
2022-10-01T15:30:00.385Z,41.53
2022-10-01T15:32:28.437Z,40.15
2022-10-01T15:34:58.126Z,40.42
2022-10-01T15:37:37.902Z,36.50
2022-10-01T15:40:09.674Z,33.80
2022-10-01T15:42:36.957Z,38.20
2022-10-01T15:45:09.319Z,65.60
2022-10-01T15:47:47.783Z,64.47
2022-10-01T15:50:18.819Z,126.63
2022-10-01T15:52:54.403Z,135.57
2022-10-01T15:55:23.742Z,123.80
2022-10-01T15:58:15.113Z,147.25
2022-10-01T16:00:43.883Z,123.60
2022-10-01T16:03:31.588Z,128.07
2022-10-01T16:06:01.918Z,108.63
2022-10-01T16:08:35.361Z,102.30
2022-10-01T16:11:16.041Z,132.98
2022-10-01T16:13:49.043Z,167.40
2022-10-01T16:16:21.338Z,169.50
2022-10-01T16:18:54.045Z,194.52
2022-10-01T16:21:21.756Z,194.80
2022-10-01T16:23:54.023Z,212.02
2022-10-01T16:26:38.188Z,218.65
2022-10-01T16:29:14.225Z,228.02
2022-10-01T16:31:44.338Z,241.43
2022-10-01T16:34:16.310Z,225.55
2022-10-01T16:36:43.183Z,202.88
2022-10-01T16:39:12.540Z,182.90
2022-10-01T16:41:40.767Z,168.18
2022-10-01T16:44:07.415Z,170.15
2022-10-01T16:46:34.081Z,142.60
2022-10-01T16:49:00.779Z,130.57
2022-10-01T16:51:27.362Z,128.23
2022-10-01T16:53:54.974Z,139.07
2022-10-01T16:56:26.291Z,127.55
2022-10-01T16:58:53.756Z,141.55
2022-10-01T17:01:20.381Z,142.23
2022-10-01T17:03:46.964Z,147.57
2022-10-01T17:06:13.468Z,142.63
2022-10-01T17:08:40.008Z,127.53
2022-10-01T17:11:10.671Z,152.75
2022-10-01T17:13:39.079Z,153.05
2022-10-01T17:16:05.907Z,186.25
2022-10-01T17:18:32.628Z,188.88
2022-10-01T17:20:59.598Z,204.27
2022-10-01T17:23:26.078Z,199.68
2022-10-01T17:25:52.623Z,212.98
2022-10-01T17:28:20.620Z,214.77
2022-10-01T17:30:48.778Z,222.60
2022-10-01T17:33:19.141Z,218.68
2022-10-01T17:35:52.235Z,248.55
2022-10-01T17:38:19.456Z,248.70
2022-10-01T17:40:46.291Z,265.67
2022-10-01T17:43:15.223Z,253.02
2022-10-01T17:45:42.550Z,259.92
2022-10-01T17:48:09.697Z,274.75
2022-10-01T17:50:43.622Z,265.27
2022-10-01T17:53:11.555Z,245.60
2022-10-01T17:55:42.132Z,268.75
2022-10-01T17:58:08.682Z,276.83
2022-10-01T18:00:35.479Z,290.20
2022-10-01T18:03:02.136Z,295.92
2022-10-01T18:05:28.696Z,286.70
2022-10-01T18:07:55.483Z,303.90
2022-10-01T18:10:21.974Z,296.05
2022-10-01T18:12:48.555Z,306.25
2022-10-01T18:15:15.526Z,299.88
2022-10-01T18:17:43.784Z,305.60
2022-10-01T18:20:18.955Z,302.10
2022-10-01T18:22:45.478Z,304.77
2022-10-01T18:25:13.933Z,300.67
2022-10-01T18:27:40.468Z,308.40
2022-10-01T18:30:07.680Z,295.42
2022-10-01T18:32:40.696Z,242.88
2022-10-01T18:35:27.748Z,252.02
2022-10-01T18:38:20.666Z,264.35
2022-10-01T18:40:56.673Z,274.80
2022-10-01T18:43:25.926Z,279.80
2022-10-01T18:46:19.836Z,293.65
2022-10-01T18:49:03.828Z,298.08
2022-10-01T18:52:01.072Z,302.33
2022-10-01T18:54:27.515Z,283.42
2022-10-01T18:57:05.212Z,302.70
2022-10-01T18:59:35.650Z,319.67
2022-10-01T19:02:23.664Z,335.02
2022-10-01T19:05:23.308Z,347.35
2022-10-01T19:08:17.623Z,359.77
2022-10-01T19:11:14.583Z,379.27
2022-10-01T19:14:25.571Z,375.58
2022-10-01T19:17:06.796Z,387.80
2022-10-01T19:19:52.911Z,385.15
2022-10-01T19:22:42.483Z,350.15
2022-10-01T19:25:20.468Z,315.65
2022-10-01T19:28:01.407Z,308.65
2022-10-01T19:30:37.836Z,296.70
2022-10-01T19:33:13.167Z,305.90
2022-10-01T19:35:42.236Z,315.17
2022-10-01T19:38:23.895Z,356.23
2022-10-01T19:41:02.589Z,323.60
2022-10-01T19:43:55.386Z,350.85
2022-10-01T19:46:40.082Z,353.63
2022-10-01T19:49:09.927Z,385.88
2022-10-01T19:51:40.808Z,377.73
2022-10-01T19:54:16.960Z,351.10
2022-10-01T19:56:47.883Z,372.83
2022-10-01T19:59:19.818Z,380.65
2022-10-01T20:01:52.445Z,367.50
2022-10-01T20:04:51.682Z,396.17
2022-10-01T20:07:24.197Z,393.75
2022-10-01T20:10:13.648Z,413.92
2022-10-01T20:12:50.882Z,407.05
2022-10-01T20:15:42.444Z,412.65
2022-10-01T20:18:14.810Z,421.38
2022-10-01T20:20:43.889Z,440.02
2022-10-01T20:23:34.989Z,421.90
2022-10-01T20:26:22.574Z,436.15
2022-10-01T20:29:10.465Z,405.85
2022-10-01T20:32:14.877Z,412.67
2022-10-01T20:35:00.556Z,400.98
2022-10-01T20:37:57.090Z,395.02
2022-10-01T20:40:37.284Z,392.65
2022-10-01T20:43:22.414Z,403.38
2022-10-01T20:45:53.687Z,389.60
2022-10-01T20:48:25.350Z,389.80
2022-10-01T20:50:55.505Z,379.73
2022-10-01T20:53:45.235Z,398.90
2022-10-01T20:56:16.070Z,387.40
2022-10-01T20:58:53.649Z,376.08
2022-10-01T21:01:23.905Z,400.67
2022-10-01T21:04:02.803Z,393.60
2022-10-01T21:06:43.837Z,387.83
2022-10-01T21:09:19.061Z,372.55
2022-10-01T21:12:02.139Z,391.45
2022-10-01T21:14:54.575Z,367.65
2022-10-01T21:17:57.559Z,351.80
2022-10-01T21:21:06.432Z,333.35
2022-10-01T21:23:54.152Z,321.90
2022-10-01T21:26:47.107Z,318.95
2022-10-01T21:29:44.893Z,311.02
2022-10-01T21:32:33.432Z,282.00
2022-10-01T21:35:24.099Z,292.95
2022-10-01T21:37:56.678Z,299.73
2022-10-01T21:40:40.622Z,304.50
2022-10-01T21:43:12.222Z,299.97
2022-10-01T21:45:54.988Z,312.48
2022-10-01T21:48:21.463Z,308.48
2022-10-01T21:51:07.346Z,316.88
2022-10-01T21:53:57.018Z,305.00
2022-10-01T21:56:26.627Z,297.42
2022-10-01T21:59:05.591Z,301.02
2022-10-01T22:01:44.104Z,294.02
2022-10-01T22:04:24.761Z,294.08
2022-10-01T22:07:05.440Z,289.00
2022-10-01T22:09:44.403Z,278.15
2022-10-01T22:12:12.149Z,281.40
2022-10-01T22:14:40.756Z,281.88
2022-10-01T22:17:22.491Z,274.92
2022-10-01T22:19:52.254Z,268.42
2022-10-01T22:22:38.662Z,272.42
2022-10-01T22:25:07.692Z,264.70
2022-10-01T22:27:37.094Z,275.25
2022-10-01T22:30:13.480Z,279.92
2022-10-01T22:32:50.926Z,271.35
2022-10-01T22:35:24.543Z,257.15
2022-10-01T22:38:02.789Z,249.70
2022-10-01T22:40:35.969Z,234.38
2022-10-01T22:43:07.874Z,236.57
2022-10-01T22:45:42.145Z,234.10
2022-10-01T22:48:16.808Z,221.77
2022-10-01T22:50:54.394Z,207.98
2022-10-01T22:53:45.556Z,200.10
2022-10-01T22:56:16.610Z,186.85
2022-10-01T22:59:26.690Z,160.98
2022-10-01T23:02:19.380Z,127.13
2022-10-01T23:05:07.463Z,109.05
2022-10-01T23:07:36.929Z,109.75
2022-10-01T23:10:16.328Z,107.90
2022-10-01T23:13:00.965Z,96.72
2022-10-01T23:15:32.335Z,88.75
2022-10-01T23:18:22.851Z,86.88
2022-10-01T23:21:15.935Z,81.35
2022-10-01T23:23:54.080Z,81.63
2022-10-01T23:26:33.197Z,80.72
2022-10-01T23:29:16.015Z,81.55
2022-10-01T23:31:54.861Z,77.13
2022-10-01T23:34:30.413Z,81.85
2022-10-01T23:37:13.738Z,84.07
2022-10-01T23:40:01.439Z,85.93
2022-10-01T23:42:38.937Z,85.82
2022-10-01T23:45:18.459Z,91.65
2022-10-01T23:48:03.399Z,95.65
2022-10-01T23:53:27.792Z,70.32
2022-10-01T23:56:27.651Z,76.05
2022-10-01T23:59:01.759Z,78.65
